Time;durP1;ratioP1;P1;durP2;ratioP2;P2;SDS_P1;SDS_P2;PMS_P1;PMS_P2;Temp;Humidity;BMP_temperature;BMP_pressure;BME280_temperature;BME280_humidity;BME280_pressure;Samples;Min_cycle;Max_cycle;Signal;HPM_P1;HPM_P2
2024/01/02 00:01:01;;;;;;;0.00;0.00;;;25.60;43.10;;;;;;5067419;28;20210;-48
2024/01/02 00:03:32;;;;;;;0.00;0.00;;;25.70;43.10;;;;;;5067469;28;20576;-46
2024/01/02 00:06:03;;;;;;;0.00;0.00;;;25.70;43.20;;;;;;5067315;28;20385;-47
2024/01/02 00:08:33;;;;;;;0.00;0.00;;;25.70;43.20;;;;;;5067159;28;20219;-44
2024/01/02 00:11:06;;;;;;;0.00;0.00;;;25.70;43.30;;;;;;5068143;28;20198;-48
2024/01/02 00:13:37;;;;;;;0.00;0.00;;;25.70;43.30;;;;;;5064511;28;20202;-45
2024/01/02 00:16:08;;;;;;;0.00;0.00;;;25.80;43.30;;;;;;5067115;28;20571;-46
2024/01/02 00:18:41;;;;;;;0.00;0.00;;;25.80;43.30;;;;;;5066637;28;20276;-45
2024/01/02 00:21:12;;;;;;;0.00;0.00;;;25.80;43.20;;;;;;5066289;28;20647;-50
2024/01/02 00:23:43;;;;;;;0.00;0.00;;;25.80;43.30;;;;;;5067254;28;20214;-49
2024/01/02 00:26:15;;;;;;;0.00;0.00;;;25.90;43.40;;;;;;5067182;28;20600;-48
2024/01/02 00:28:46;;;;;;;0.00;0.00;;;25.90;43.40;;;;;;5066767;28;20685;-49
2024/01/02 00:31:17;;;;;;;0.00;0.00;;;25.90;43.30;;;;;;5068031;28;20198;-46
2024/01/02 00:33:47;;;;;;;0.00;0.00;;;26.00;43.40;;;;;;5070486;28;20202;-46
2024/01/02 00:36:18;;;;;;;0.00;0.00;;;26.00;43.40;;;;;;5070115;28;20202;-46
2024/01/02 00:38:49;;;;;;;0.00;0.00;;;26.00;43.40;;;;;;5071134;28;20199;-47
2024/01/02 00:41:21;;;;;;;0.00;0.00;;;26.00;43.30;;;;;;5070553;28;20218;-46
2024/01/02 00:43:52;;;;;;;0.00;0.00;;;26.10;43.40;;;;;;5070405;28;20191;-45
2024/01/02 00:46:23;;;;;;;0.00;0.00;;;26.10;43.30;;;;;;5070818;28;20234;-48
2024/01/02 00:48:53;;;;;;;0.00;0.00;;;26.10;43.40;;;;;;5069660;28;20195;-46
2024/01/02 00:51:24;;;;;;;0.00;0.00;;;26.10;43.50;;;;;;5070582;28;20195;-45
2024/01/02 00:53:55;;;;;;;0.00;0.00;;;26.20;43.40;;;;;;5070663;28;20198;-47
2024/01/02 00:56:28;;;;;;;0.00;0.00;;;26.20;43.40;;;;;;5070004;28;20297;-46
2024/01/02 00:58:59;;;;;;;0.00;0.00;;;26.20;43.40;;;;;;5070221;28;20230;-46
2024/01/02 01:01:30;;;;;;;0.00;0.00;;;26.20;43.50;;;;;;5070037;28;20627;-45
2024/01/02 01:04:02;;;;;;;0.00;0.00;;;26.20;43.40;;;;;;5069486;28;20511;-50
2024/01/02 01:06:33;;;;;;;0.00;0.00;;;26.20;43.50;;;;;;5069522;28;20226;-42
2024/01/02 01:09:04;;;;;;;0.00;0.00;;;26.30;43.60;;;;;;5055859;28;20194;-44
2024/01/02 01:11:36;;;;;;;0.00;0.00;;;26.30;44.20;;;;;;5070277;28;20290;-46
2024/01/02 01:14:07;;;;;;;0.00;0.00;;;26.30;43.60;;;;;;5069247;28;20558;-47
2024/01/02 01:16:38;;;;;;;0.00;0.00;;;26.30;43.60;;;;;;5069273;28;20199;-44
2024/01/02 01:19:09;;;;;;;0.00;0.00;;;26.40;43.70;;;;;;5069111;28;20195;-45
2024/01/02 01:21:39;;;;;;;0.00;0.00;;;26.40;43.70;;;;;;5069884;28;20654;-45
2024/01/02 01:24:10;;;;;;;0.00;0.00;;;26.40;43.60;;;;;;5069706;28;20210;-47
2024/01/02 01:26:43;;;;;;;0.00;0.00;;;26.40;43.70;;;;;;5069502;28;20265;-47
2024/01/02 01:29:14;;;;;;;0.00;0.00;;;26.50;43.70;;;;;;5069356;28;20199;-45
2024/01/02 01:31:44;;;;;;;0.00;0.00;;;26.40;43.60;;;;;;5055937;28;20265;-44
2024/01/02 01:34:15;;;;;;;0.00;0.00;;;26.50;43.70;;;;;;5055334;28;20225;-49
2024/01/02 01:36:46;;;;;;;0.00;0.00;;;26.50;43.60;;;;;;5069149;28;20707;-46
2024/01/02 01:39:17;;;;;;;0.00;0.00;;;26.50;43.60;;;;;;5069604;28;20197;-45
2024/01/02 01:41:49;;;;;;;0.00;0.00;;;26.50;43.50;;;;;;5070928;28;20218;-43
2024/01/02 01:44:20;;;;;;;0.00;0.00;;;26.50;43.50;;;;;;5072154;28;20712;-41
2024/01/02 01:46:51;;;;;;;0.00;0.00;;;26.60;43.60;;;;;;5072372;28;20229;-41
2024/01/02 01:49:22;;;;;;;0.00;0.00;;;26.50;43.50;;;;;;5072835;28;20206;-43
2024/01/02 01:51:56;;;;;;;0.00;0.00;;;26.60;43.50;;;;;;5072868;28;20194;-43
2024/01/02 01:54:27;;;;;;;0.00;0.00;;;26.60;43.50;;;;;;5072424;28;20285;-46
2024/01/02 01:57:00;;;;;;;0.00;0.00;;;26.60;43.50;;;;;;5072462;28;20449;-50
2024/01/02 01:59:31;;;;;;;0.00;0.00;;;26.60;43.40;;;;;;5072645;28;20663;-46
2024/01/02 02:02:02;;;;;;;0.00;0.00;;;26.60;43.40;;;;;;5071821;28;20561;-44
2024/01/02 02:04:34;;;;;;;0.00;0.00;;;26.70;43.40;;;;;;5072216;28;20199;-44
2024/01/02 02:07:06;;;;;;;0.00;0.00;;;26.70;43.30;;;;;;5071928;28;20266;-47
2024/01/02 02:09:37;;;;;;;0.00;0.00;;;26.70;43.30;;;;;;5071886;28;20202;-42
2024/01/02 02:12:11;;;;;;;0.00;0.00;;;26.70;43.30;;;;;;5071540;28;20187;-43
2024/01/02 02:14:42;;;;;;;0.00;0.00;;;26.70;43.30;;;;;;5072234;28;20206;-42
2024/01/02 02:17:20;;;;;;;0.00;0.00;;;26.70;43.20;;;;;;5062270;28;20217;-48
2024/01/02 02:19:51;;;;;;;0.00;0.00;;;26.70;43.20;;;;;;5052103;28;20191;-41
2024/01/02 02:22:24;;;;;;;0.00;0.00;;;26.80;43.30;;;;;;5052723;28;20202;-44
2024/01/02 02:24:56;;;;;;;0.00;0.00;;;26.70;43.10;;;;;;5052347;28;20192;-47
2024/01/02 02:27:27;;;;;;;0.00;0.00;;;26.80;43.10;;;;;;5051980;28;20585;-46
2024/01/02 02:29:58;;;;;;;0.00;0.00;;;26.80;43.00;;;;;;5052074;28;20195;-42
2024/01/02 02:32:29;;;;;;;0.00;0.00;;;26.80;43.00;;;;;;5052021;28;20199;-42
2024/01/02 02:35:00;;;;;;;0.00;0.00;;;26.80;43.00;;;;;;5051972;28;20196;-50
2024/01/02 02:37:30;;;;;;;0.00;0.00;;;26.80;42.90;;;;;;5059076;28;20687;-43
2024/01/02 02:40:03;;;;;;;0.00;0.00;;;26.80;42.80;;;;;;5072157;28;20205;-42
2024/01/02 02:42:34;;;;;;;0.00;0.00;;;26.80;42.80;;;;;;5072135;28;20198;-42
2024/01/02 02:45:05;;;;;;;0.00;0.00;;;26.90;42.90;;;;;;5071789;28;20562;-45
2024/01/02 02:47:35;;;;;;;0.00;0.00;;;26.80;42.80;;;;;;5072217;28;20230;-43
2024/01/02 02:50:06;;;;;;;0.00;0.00;;;26.90;42.80;;;;;;5071926;28;20205;-43
2024/01/02 02:52:40;;;;;;;0.00;0.00;;;26.90;42.80;;;;;;5071586;28;20201;-46
2024/01/02 02:55:13;;;;;;;0.00;0.00;;;26.90;42.80;;;;;;5070619;28;20206;-43
2024/01/02 02:57:44;;;;;;;0.00;0.00;;;26.90;42.80;;;;;;5071976;28;20222;-46
2024/01/02 03:00:15;;;;;;;0.00;0.00;;;26.90;42.80;;;;;;5071969;28;20245;-44
2024/01/02 03:02:46;;;;;;;0.00;0.00;;;26.90;42.80;;;;;;5071488;28;20217;-49
2024/01/02 03:05:17;;;;;;;0.00;0.00;;;27.00;42.80;;;;;;5071282;28;20195;-50
2024/01/02 03:07:48;;;;;;;0.00;0.00;;;27.00;42.80;;;;;;5071171;28;20239;-49
2024/01/02 03:10:20;;;;;;;0.00;0.00;;;27.00;42.80;;;;;;5071298;28;20668;-50
2024/01/02 03:12:51;;;;;;;0.00;0.00;;;27.00;42.80;;;;;;5071530;28;20201;-52
2024/01/02 03:15:22;;;;;;;0.00;0.00;;;27.00;42.80;;;;;;5071605;28;20232;-46
2024/01/02 03:17:52;;;;;;;0.00;0.00;;;27.00;42.70;;;;;;5071389;28;20215;-50
2024/01/02 03:20:23;;;;;;;0.00;0.00;;;27.10;42.80;;;;;;5070408;28;20212;-48
2024/01/02 03:22:55;;;;;;;0.00;0.00;;;27.10;42.80;;;;;;5069064;28;20652;-50
2024/01/02 03:25:28;;;;;;;0.00;0.00;;;27.10;42.80;;;;;;5051677;28;20728;-47
2024/01/02 03:27:58;;;;;;;0.00;0.00;;;27.10;42.80;;;;;;5051213;28;20687;-49
2024/01/02 03:30:29;;;;;;;0.00;0.00;;;27.10;42.80;;;;;;5050826;28;20201;-50
2024/01/02 03:33:00;;;;;;;0.00;0.00;;;27.20;42.90;;;;;;5050938;28;20207;-47
2024/01/02 03:35:30;;;;;;;0.00;0.00;;;27.20;42.90;;;;;;5050985;28;20202;-52
2024/01/02 03:38:01;;;;;;;0.00;0.00;;;27.20;42.90;;;;;;5062661;28;20222;-47
2024/01/02 03:40:34;;;;;;;0.00;0.00;;;27.20;42.90;;;;;;5071281;28;20195;-47
2024/01/02 03:43:04;;;;;;;0.00;0.00;;;27.20;42.90;;;;;;5071212;28;20682;-48
2024/01/02 03:45:35;;;;;;;0.00;0.00;;;27.30;43.00;;;;;;5070866;28;20566;-45
2024/01/02 03:48:06;;;;;;;0.00;0.00;;;27.20;43.00;;;;;;5071307;28;20230;-50
2024/01/02 03:50:37;;;;;;;0.00;0.00;;;27.30;42.90;;;;;;5070910;28;20190;-49
2024/01/02 03:53:08;;;;;;;0.00;0.00;;;27.30;42.90;;;;;;5071275;28;20222;-50
2024/01/02 03:55:40;;;;;;;0.00;0.00;;;27.30;42.90;;;;;;5070461;28;20281;-45
2024/01/02 03:58:11;;;;;;;0.00;0.00;;;27.40;43.00;;;;;;5071206;28;20215;-49
2024/01/02 04:00:42;;;;;;;0.00;0.00;;;27.40;42.90;;;;;;5071254;28;20198;-52
2024/01/02 04:03:12;;;;;;;0.00;0.00;;;27.40;42.90;;;;;;5071095;28;20569;-45
2024/01/02 04:05:43;;;;;;;0.00;0.00;;;27.40;42.90;;;;;;5070915;28;20191;-53
2024/01/02 04:08:14;;;;;;;0.00;0.00;;;27.50;43.00;;;;;;5074728;28;20241;-48
2024/01/02 04:10:46;;;;;;;0.00;0.00;;;27.40;42.80;;;;;;5060543;28;20188;-46
2024/01/02 04:13:17;;;;;;;0.00;0.00;;;27.50;42.80;;;;;;5056724;28;20207;-50
2024/01/02 04:15:48;;;;;;;0.00;0.00;;;27.50;42.80;;;;;;5074421;28;20199;-45
2024/01/02 04:18:19;;;;;;;0.00;0.00;;;27.50;42.80;;;;;;5074380;28;20215;-43
2024/01/02 04:20:49;;;;;;;0.00;0.00;;;27.50;42.80;;;;;;5063891;28;20219;-46
2024/01/02 04:23:20;;;;;;;0.00;0.00;;;27.60;42.80;;;;;;5055602;28;20196;-47
2024/01/02 04:25:53;;;;;;;0.00;0.00;;;27.50;42.80;;;;;;5061179;28;20555;-48
2024/01/02 04:28:23;;;;;;;0.00;0.00;;;27.50;42.80;;;;;;5070321;28;20716;-47
2024/01/02 04:30:54;;;;;;;0.00;0.00;;;27.50;42.80;;;;;;5071189;28;20195;-44
2024/01/02 04:33:25;;;;;;;0.00;0.00;;;27.50;42.80;;;;;;5070083;28;20681;-46
2024/01/02 04:35:56;;;;;;;0.00;0.00;;;27.50;42.80;;;;;;5069731;28;20811;-47
2024/01/02 04:38:27;;;;;;;0.00;0.00;;;27.50;42.80;;;;;;5069505;28;20206;-47
2024/01/02 04:40:59;;;;;;;0.00;0.00;;;27.60;42.90;;;;;;5070249;28;20201;-49
2024/01/02 04:43:30;;;;;;;0.00;0.00;;;27.60;42.90;;;;;;5070440;28;20206;-46
2024/01/02 04:46:01;;;;;;;0.00;0.00;;;27.60;42.90;;;;;;5070302;28;20559;-45
2024/01/02 04:48:31;;;;;;;0.00;0.00;;;27.60;42.90;;;;;;5069908;28;20233;-46
2024/01/02 04:51:02;;;;;;;0.00;0.00;;;27.60;42.80;;;;;;5068543;28;20195;-48
2024/01/02 04:53:33;;;;;;;0.00;0.00;;;27.60;42.80;;;;;;5070664;28;20214;-47
2024/01/02 04:56:05;;;;;;;0.00;0.00;;;27.60;42.80;;;;;;5070221;28;20198;-46
2024/01/02 04:58:36;;;;;;;0.00;0.00;;;27.60;42.80;;;;;;5070266;28;20722;-49
2024/01/02 05:01:07;;;;;;;0.00;0.00;;;27.60;42.80;;;;;;5070510;28;20229;-45
2024/01/02 05:03:38;;;;;;;0.00;0.00;;;27.60;43.30;;;;;;5069498;28;20199;-48
2024/01/02 05:06:08;;;;;;;0.00;0.00;;;27.60;42.70;;;;;;5069145;28;20400;-41
2024/01/02 05:08:39;;;;;;;0.00;0.00;;;27.60;42.60;;;;;;5069322;28;20240;-46
2024/01/02 05:11:12;;;;;;;0.00;0.00;;;27.70;42.60;;;;;;5069244;28;20190;-48
2024/01/02 05:13:42;;;;;;;0.00;0.00;;;27.60;42.60;;;;;;5069112;28;20587;-51
2024/01/02 05:16:13;;;;;;;0.00;0.00;;;27.60;42.50;;;;;;5068817;28;20212;-50
2024/01/02 05:18:44;;;;;;;0.00;0.00;;;27.60;42.60;;;;;;5056566;28;20240;-41
2024/01/02 05:21:15;;;;;;;0.00;0.00;;;27.60;42.60;;;;;;5061764;28;20202;-48
2024/01/02 05:23:45;;;;;;;0.00;0.00;;;27.60;42.60;;;;;;5069555;28;20201;-46
2024/01/02 05:26:18;;;;;;;0.00;0.00;;;27.60;42.60;;;;;;5069745;28;20203;-47
2024/01/02 05:28:49;;;;;;;0.00;0.00;;;27.60;42.70;;;;;;5068495;28;20226;-46
2024/01/02 05:31:19;;;;;;;0.00;0.00;;;27.60;42.70;;;;;;5068900;28;20194;-49
2024/01/02 05:33:50;;;;;;;0.00;0.00;;;27.60;42.80;;;;;;5069421;28;20201;-49
2024/01/02 05:36:21;;;;;;;0.00;0.00;;;27.60;42.80;;;;;;5069562;28;20203;-46
2024/01/02 05:38:51;;;;;;;0.00;0.00;;;27.60;42.90;;;;;;5069864;28;20219;-48
2024/01/02 05:41:24;;;;;;;0.00;0.00;;;27.60;42.90;;;;;;5068372;28;20202;-45
2024/01/02 05:43:55;;;;;;;0.00;0.00;;;27.70;43.00;;;;;;5070400;28;20198;-45
2024/01/02 05:46:25;;;;;;;0.00;0.00;;;27.60;42.90;;;;;;5069525;28;20195;-46
2024/01/02 05:48:56;;;;;;;0.00;0.00;;;27.70;43.00;;;;;;5098153;22;20328;-47
2024/01/02 05:51:27;;;;;;;0.00;0.00;;;27.70;43.10;;;;;;5089969;28;20541;-46
2024/01/02 05:53:58;;;;;;;0.00;0.00;;;27.70;43.10;;;;;;5088906;28;20198;-47
2024/01/02 05:56:30;;;;;;;0.00;0.00;;;27.70;43.10;;;;;;5088928;28;20458;-45
2024/01/02 05:59:01;;;;;;;0.00;0.00;;;27.70;43.20;;;;;;5069266;28;20210;-45
2024/01/02 06:01:32;;;;;;;0.00;0.00;;;27.70;43.20;;;;;;5069289;28;20202;-49
2024/01/02 06:04:03;;;;;;;0.00;0.00;;;27.70;43.20;;;;;;5068227;28;20202;-45
2024/01/02 06:06:33;;;;;;;0.00;0.00;;;27.70;43.30;;;;;;5068610;28;20202;-43
2024/01/02 06:09:05;;;;;;;0.00;0.00;;;27.60;43.20;;;;;;5068061;28;20231;-44
2024/01/02 06:11:37;;;;;;;0.00;0.00;;;27.60;43.30;;;;;;5068392;28;20534;-44
2024/01/02 06:14:08;;;;;;;0.00;0.00;;;27.60;43.90;;;;;;5065590;28;20194;-45
2024/01/02 06:16:39;;;;;;;0.00;0.00;;;27.60;43.30;;;;;;5049247;28;20207;-44
2024/01/02 06:19:10;;;;;;;0.00;0.00;;;27.60;43.30;;;;;;5047789;28;20564;-46
2024/01/02 06:21:42;;;;;;;0.00;0.00;;;27.60;44.00;;;;;;5068432;28;20202;-46
2024/01/02 06:24:12;;;;;;;0.00;0.00;;;27.60;43.40;;;;;;5068010;28;20206;-46
2024/01/02 06:26:45;;;;;;;0.00;0.00;;;27.60;43.40;;;;;;5068226;28;20613;-46
2024/01/02 06:29:16;;;;;;;0.00;0.00;;;27.60;43.50;;;;;;5068914;28;20714;-46
2024/01/02 06:31:46;;;;;;;0.00;0.00;;;27.60;43.50;;;;;;5068132;28;20203;-45
2024/01/02 06:34:17;;;;;;;0.00;0.00;;;27.50;43.50;;;;;;5070834;28;20203;-45
2024/01/02 06:36:48;;;;;;;0.00;0.00;;;27.60;43.50;;;;;;5071274;28;20201;-45
2024/01/02 06:39:18;;;;;;;0.00;0.00;;;27.60;43.50;;;;;;5072234;28;20205;-45
2024/01/02 06:41:51;;;;;;;0.00;0.00;;;27.50;43.50;;;;;;5072281;28;20599;-45
2024/01/02 06:44:22;;;;;;;0.00;0.00;;;27.50;43.50;;;;;;5071915;28;20674;-44
2024/01/02 06:46:53;;;;;;;0.00;0.00;;;27.50;43.50;;;;;;5072250;28;20248;-45
2024/01/02 06:49:23;;;;;;;0.00;0.00;;;27.50;43.50;;;;;;5071230;28;20225;-46
2024/01/02 06:51:54;;;;;;;0.00;0.00;;;27.50;43.60;;;;;;5072035;28;20199;-45
2024/01/02 06:54:25;;;;;;;0.00;0.00;;;27.50;43.60;;;;;;5071877;28;20202;-45
2024/01/02 06:56:58;;;;;;;0.00;0.00;;;27.50;43.60;;;;;;5072155;28;20210;-45
2024/01/02 06:59:29;;;;;;;0.00;0.00;;;27.50;43.70;;;;;;5071842;28;20241;-45
2024/01/02 07:02:00;;;;;;;0.00;0.00;;;27.40;43.60;;;;;;5072032;28;20195;-47
2024/01/02 07:04:30;;;;;;;0.00;0.00;;;27.40;43.60;;;;;;5071130;28;20707;-44
2024/01/02 07:07:01;;;;;;;0.00;0.00;;;27.40;43.70;;;;;;5071063;28;20222;-47
2024/01/02 07:09:32;;;;;;;0.00;0.00;;;27.40;43.70;;;;;;5071638;28;20562;-45
2024/01/02 07:12:04;;;;;;;0.00;0.00;;;27.40;43.70;;;;;;5071563;28;20199;-45
2024/01/02 07:14:37;;;;;;;0.00;0.00;;;27.30;43.70;;;;;;5071026;28;20190;-44
2024/01/02 07:17:08;;;;;;;0.00;0.00;;;27.30;43.70;;;;;;5071335;28;20250;-45
2024/01/02 07:19:39;;;;;;;0.00;0.00;;;27.30;43.70;;;;;;5070471;28;20202;-45
2024/01/02 07:22:09;;;;;;;0.00;0.00;;;27.30;43.80;;;;;;5070579;28;20183;-44
2024/01/02 07:24:40;;;;;;;0.00;0.00;;;27.30;43.90;;;;;;5070999;28;20222;-46
2024/01/02 07:27:14;;;;;;;0.00;0.00;;;27.30;43.80;;;;;;5070943;28;20225;-46
2024/01/02 07:29:45;;;;;;;0.00;0.00;;;27.20;43.80;;;;;;5071382;28;20223;-45
2024/01/02 07:32:15;;;;;;;0.00;0.00;;;27.20;43.80;;;;;;5071040;28;20203;-46
2024/01/02 07:34:46;;;;;;;0.00;0.00;;;27.20;43.90;;;;;;5070433;28;20586;-46
2024/01/02 07:37:17;;;;;;;0.00;0.00;;;27.20;43.80;;;;;;5070018;28;20214;-45
2024/01/02 07:39:50;;;;;;;0.00;0.00;;;27.20;43.90;;;;;;5071204;28;20199;-45
2024/01/02 07:42:22;;;;;;;0.00;0.00;;;27.20;43.90;;;;;;5074452;28;20190;-45
2024/01/02 07:44:53;;;;;;;0.00;0.00;;;27.20;43.90;;;;;;5075591;28;20199;-46
2024/01/02 07:47:25;;;;;;;0.00;0.00;;;27.20;43.90;;;;;;5075044;28;20265;-47
2024/01/02 07:49:56;;;;;;;0.00;0.00;;;27.20;43.90;;;;;;5075009;28;20229;-45
2024/01/02 07:52:27;;;;;;;0.00;0.00;;;27.10;43.90;;;;;;5075171;28;20252;-45
2024/01/02 07:54:57;;;;;;;0.00;0.00;;;27.10;43.90;;;;;;5075359;28;20203;-44
2024/01/02 07:57:30;;;;;;;0.00;0.00;;;27.10;43.90;;;;;;5075171;28;20210;-45
2024/01/02 08:00:01;;;;;;;0.00;0.00;;;27.10;43.90;;;;;;5075311;28;20256;-45
2024/01/02 08:02:31;;;;;;;0.00;0.00;;;27.10;44.00;;;;;;5074246;28;20278;-44
2024/01/02 08:05:02;;;;;;;0.00;0.00;;;27.10;44.00;;;;;;5074670;28;20193;-47
2024/01/02 08:07:33;;;;;;;0.00;0.00;;;27.00;43.90;;;;;;5074616;28;20225;-45
2024/01/02 08:10:04;;;;;;;0.00;0.00;;;27.00;43.90;;;;;;5074737;28;20222;-49
2024/01/02 08:12:36;;;;;;;0.00;0.00;;;27.00;44.10;;;;;;5074934;28;20195;-46
2024/01/02 08:15:07;;;;;;;0.00;0.00;;;27.00;44.00;;;;;;5074649;28;20195;-47
2024/01/02 08:17:38;;;;;;;0.00;0.00;;;27.00;44.10;;;;;;5073981;28;20222;-47
2024/01/02 08:20:10;;;;;;;0.00;0.00;;;27.00;44.10;;;;;;5073978;28;20203;-45
2024/01/02 08:22:41;;;;;;;0.00;0.00;;;27.00;44.10;;;;;;5073877;28;20190;-45
2024/01/02 08:28:25;;;;;;;0.00;0.00;;;26.90;44.20;;;;;;5049339;28;20306;-45
2024/01/02 08:30:56;;;;;;;0.00;0.00;;;26.90;44.10;;;;;;5051846;28;20210;-45
2024/01/02 08:33:26;;;;;;;0.00;0.00;;;27.00;44.20;;;;;;5051178;28;20199;-45
2024/01/02 08:35:57;;;;;;;0.00;0.00;;;26.90;44.20;;;;;;5051926;28;20195;-49
2024/01/02 08:38:28;;;;;;;0.00;0.00;;;26.90;44.20;;;;;;5051747;28;20219;-45
2024/01/02 08:40:58;;;;;;;0.00;0.00;;;26.90;44.20;;;;;;5051248;28;20199;-46
2024/01/02 08:43:34;;;;;;;0.00;0.00;;;26.90;44.30;;;;;;5051130;28;20686;-45
2024/01/02 08:46:05;;;;;;;0.00;0.00;;;26.80;44.20;;;;;;5051526;28;20678;-45
2024/01/02 08:48:36;;;;;;;0.00;0.00;;;26.80;44.20;;;;;;5050968;28;20289;-45
2024/01/02 08:51:07;;;;;;;0.00;0.00;;;26.80;44.30;;;;;;5051236;28;20206;-47
2024/01/02 08:53:38;;;;;;;0.00;0.00;;;26.80;44.30;;;;;;5049895;28;20199;-46
2024/01/02 08:56:09;;;;;;;0.00;0.00;;;26.70;44.20;;;;;;5050981;28;20202;-48
2024/01/02 08:58:43;;;;;;;0.00;0.00;;;26.70;44.20;;;;;;5051256;28;20215;-45
2024/01/02 09:01:17;;;;;;;0.00;0.00;;;26.70;44.30;;;;;;5051516;28;20610;-47
2024/01/02 09:03:48;;;;;;;0.00;0.00;;;26.70;44.30;;;;;;5050520;28;20188;-46
2024/01/02 09:06:20;;;;;;;0.00;0.00;;;26.70;44.30;;;;;;5051242;28;20206;-49
2024/01/02 09:08:51;;;;;;;0.00;0.00;;;26.70;44.30;;;;;;5050833;28;20701;-48
2024/01/02 09:11:22;;;;;;;0.00;0.00;;;26.70;44.40;;;;;;5050934;28;20211;-47
2024/01/02 09:13:54;;;;;;;0.00;0.00;;;26.60;44.30;;;;;;5050887;28;20188;-48
2024/01/02 09:16:30;;;;;;;0.00;0.00;;;26.60;45.00;;;;;;5050123;28;20584;-49
2024/01/02 09:19:01;;;;;;;0.00;0.00;;;26.60;44.40;;;;;;5050245;28;20229;-50
2024/01/02 09:21:32;;;;;;;0.00;0.00;;;26.60;44.40;;;;;;5049933;28;20192;-50
2024/01/02 09:24:03;;;;;;;0.00;0.00;;;26.60;44.40;;;;;;5054707;28;20562;-49
2024/01/02 09:26:35;;;;;;;0.00;0.00;;;26.60;44.40;;;;;;5071202;28;20197;-51
2024/01/02 09:29:08;;;;;;;0.00;0.00;;;26.50;44.30;;;;;;5068490;28;20227;-47
2024/01/02 09:31:38;;;;;;;0.00;0.00;;;26.60;44.30;;;;;;5069189;28;20190;-50
2024/01/02 09:34:09;;;;;;;0.00;0.00;;;26.50;44.30;;;;;;5069591;28;20199;-48
2024/01/02 09:36:40;;;;;;;0.00;0.00;;;26.50;44.40;;;;;;5070009;28;20531;-50
2024/01/02 09:39:12;;;;;;;0.00;0.00;;;26.50;44.40;;;;;;5068927;28;20231;-49
2024/01/02 09:41:57;;;;;;;0.00;0.00;;;26.50;44.40;;;;;;5068907;28;20199;-50
2024/01/02 09:44:49;;;;;;;0.00;0.00;;;26.40;44.40;;;;;;5069409;28;20617;-52
2024/01/02 09:47:38;;;;;;;0.00;0.00;;;26.40;44.40;;;;;;5066993;22;20199;-48
2024/01/02 09:50:14;;;;;;;0.00;0.00;;;26.40;44.40;;;;;;5089016;28;20588;-50
2024/01/02 09:53:06;;;;;;;0.00;0.00;;;26.40;44.40;;;;;;5089530;28;20259;-49
2024/01/02 09:55:42;;;;;;;0.00;0.00;;;26.40;44.40;;;;;;5088465;28;20205;-47
2024/01/02 09:58:22;;;;;;;0.00;0.00;;;26.30;44.40;;;;;;5088867;28;20224;-43
2024/01/02 10:01:11;;;;;;;0.00;0.00;;;26.30;44.40;;;;;;5088603;28;20213;-54
2024/01/02 10:04:07;;;;;;;0.00;0.00;;;26.30;44.50;;;;;;5088374;28;20562;-50
2024/01/02 10:06:50;;;;;;;0.00;0.00;;;26.30;44.50;;;;;;5088593;28;20194;-51
2024/01/02 10:09:58;;;;;;;0.00;0.00;;;26.30;44.50;;;;;;5088834;28;20238;-48
2024/01/02 10:12:35;;;;;;;0.00;0.00;;;26.20;44.40;;;;;;5088305;28;20198;-47
2024/01/02 10:15:15;;;;;;;0.00;0.00;;;26.20;44.40;;;;;;5089190;28;20217;-49
2024/01/02 10:18:00;;;;;;;0.00;0.00;;;26.20;44.50;;;;;;5088149;28;20287;-51
2024/01/02 10:20:43;;;;;;;0.00;0.00;;;26.20;44.60;;;;;;5087298;28;20198;-50
2024/01/02 10:23:27;;;;;;;0.00;0.00;;;26.20;44.50;;;;;;5088558;28;20634;-53
2024/01/02 10:26:04;;;;;;;0.00;0.00;;;26.20;44.50;;;;;;5089061;28;20194;-48
2024/01/02 10:28:38;;;;;;;0.00;0.00;;;26.20;44.50;;;;;;5088098;28;20784;-49
2024/01/02 10:31:18;;;;;;;0.00;0.00;;;26.10;44.40;;;;;;5088087;28;20713;-47
2024/01/02 10:34:00;;;;;;;0.00;0.00;;;26.10;44.50;;;;;;5088403;28;20645;-47
2024/01/02 10:36:34;;;;;;;0.00;0.00;;;26.10;44.50;;;;;;5088454;28;20544;-49
2024/01/02 10:39:11;;;;;;;0.00;0.00;;;26.10;44.40;;;;;;5069062;28;20218;-51
2024/01/02 10:41:58;;;;;;;0.00;0.00;;;26.10;44.40;;;;;;5068691;28;20199;-49
2024/01/02 10:44:39;;;;;;;0.10;0.10;;;26.00;44.40;;;;;;5075710;28;20221;-48
2024/01/02 10:47:16;;;;;;;0.00;0.00;;;26.00;44.50;;;;;;5088204;28;20247;-47
2024/01/02 10:49:54;;;;;;;0.00;0.00;;;26.00;44.50;;;;;;5088609;28;20813;-46
2024/01/02 10:52:28;;;;;;;0.00;0.00;;;26.00;44.60;;;;;;5088666;28;20194;-51
2024/01/02 10:55:06;;;;;;;0.00;0.00;;;26.00;44.60;;;;;;5088681;28;20197;-51
2024/01/02 10:57:48;;;;;;;0.00;0.00;;;25.90;44.60;;;;;;5087064;28;20221;-48
2024/01/02 11:00:23;;;;;;;0.00;0.00;;;25.90;44.50;;;;;;5087985;28;20251;-45
2024/01/02 11:02:59;;;;;;;0.00;0.00;;;25.90;44.50;;;;;;5087500;28;20198;-46
2024/01/02 11:05:39;;;;;;;0.00;0.00;;;25.90;44.50;;;;;;5088088;28;20201;-46
2024/01/02 11:08:15;;;;;;;0.00;0.00;;;25.90;44.60;;;;;;5087517;28;20222;-48
2024/01/02 11:10:58;;;;;;;0.00;0.00;;;25.90;44.60;;;;;;5087954;28;20274;-50
2024/01/02 11:13:29;;;;;;;0.00;0.00;;;25.90;44.60;;;;;;5087323;28;20254;-44
2024/01/02 11:16:02;;;;;;;0.00;0.00;;;25.90;44.60;;;;;;5086619;28;20201;-45
2024/01/02 11:18:36;;;;;;;0.00;0.00;;;25.80;44.50;;;;;;5087432;28;20225;-49
2024/01/02 11:21:15;;;;;;;0.00;0.00;;;25.80;44.50;;;;;;5087048;28;20194;-41
2024/01/02 11:23:49;;;;;;;0.00;0.00;;;25.80;44.60;;;;;;5075328;28;20201;-44
2024/01/02 11:26:23;;;;;;;0.00;0.00;;;25.80;44.60;;;;;;5087720;28;20684;-43
2024/01/02 11:28:55;;;;;;;0.00;0.00;;;25.80;44.60;;;;;;5087592;28;20444;-48
2024/01/02 11:31:27;;;;;;;0.00;0.00;;;25.70;44.60;;;;;;5086207;28;20249;-46
2024/01/02 11:34:11;;;;;;;0.00;0.00;;;25.70;44.60;;;;;;5088216;28;20206;-45
2024/01/02 11:37:03;;;;;;;0.00;0.00;;;25.70;44.60;;;;;;5087418;28;20198;-47
2024/01/02 11:39:46;;;;;;;0.00;0.00;;;25.70;44.70;;;;;;5087617;28;20224;-46
2024/01/02 11:42:28;;;;;;;0.00;0.00;;;25.70;44.60;;;;;;5087733;28;20248;-46
2024/01/02 11:45:04;;;;;;;0.00;0.00;;;25.70;44.70;;;;;;5087404;28;20407;-47
2024/01/02 11:47:43;;;;;;;0.00;0.00;;;25.60;44.60;;;;;;5100361;22;20371;-46
2024/01/02 11:50:15;;;;;;;0.00;0.00;;;25.60;44.70;;;;;;5087747;28;20257;-47
2024/01/02 11:53:05;;;;;;;0.00;0.00;;;25.60;44.60;;;;;;5087117;28;20198;-47
2024/01/02 11:55:48;;;;;;;0.00;0.00;;;25.60;44.70;;;;;;5087744;28;20194;-47
2024/01/02 11:58:25;;;;;;;0.00;0.00;;;25.60;44.70;;;;;;5088106;28;20218;-46
2024/01/02 12:01:08;;;;;;;0.00;0.00;;;25.60;44.70;;;;;;5086071;28;20212;-46
2024/01/02 12:03:51;;;;;;;0.00;0.00;;;25.60;44.70;;;;;;5087025;28;20255;-46
2024/01/02 12:06:43;;;;;;;0.00;0.00;;;25.50;44.60;;;;;;5086865;28;20194;-47
2024/01/02 12:09:19;;;;;;;0.00;0.00;;;25.50;44.60;;;;;;5066806;28;20249;-46
2024/01/02 12:11:55;;;;;;;0.00;0.00;;;25.50;44.60;;;;;;5067005;28;20209;-45
2024/01/02 12:14:38;;;;;;;0.00;0.00;;;25.50;44.60;;;;;;5067061;28;20198;-46
2024/01/02 12:17:11;;;;;;;0.00;0.00;;;25.50;44.60;;;;;;5086194;28;20202;-45
2024/01/02 12:19:42;;;;;;;0.00;0.00;;;25.40;44.60;;;;;;5087732;28;20194;-49
2024/01/02 12:22:13;;;;;;;0.00;0.00;;;25.40;44.70;;;;;;5087102;28;20191;-50
2024/01/02 12:24:47;;;;;;;0.00;0.00;;;25.40;44.70;;;;;;5087410;28;20217;-46
2024/01/02 12:27:23;;;;;;;0.00;0.00;;;25.40;44.80;;;;;;5088630;28;20202;-46
2024/01/02 12:29:58;;;;;;;0.00;0.00;;;25.30;44.70;;;;;;5090612;28;20224;-44
2024/01/02 12:32:45;;;;;;;0.00;0.00;;;25.40;44.80;;;;;;5090827;28;20200;-45
2024/01/02 12:35:27;;;;;;;0.00;0.00;;;25.30;44.80;;;;;;5091162;28;20205;-46
2024/01/02 12:38:16;;;;;;;0.00;0.00;;;25.30;44.80;;;;;;5091079;28;20222;-46
2024/01/02 12:40:50;;;;;;;0.00;0.00;;;25.30;44.90;;;;;;5090040;28;20690;-46
2024/01/02 12:43:25;;;;;;;0.00;0.00;;;25.30;44.80;;;;;;5090374;28;20243;-46
2024/01/02 12:46:02;;;;;;;0.00;0.00;;;25.30;44.90;;;;;;5089349;28;20205;-47
2024/01/02 12:48:37;;;;;;;0.00;0.00;;;25.30;44.90;;;;;;5092667;28;20221;-46
2024/01/02 12:51:10;;;;;;;0.00;0.00;;;25.30;44.90;;;;;;5093464;28;20221;-48
2024/01/02 12:53:45;;;;;;;0.00;0.00;;;25.20;44.80;;;;;;5094403;28;20436;-48
2024/01/02 12:56:21;;;;;;;0.00;0.00;;;25.20;44.80;;;;;;5093924;28;20190;-47
2024/01/02 12:58:52;;;;;;;0.00;0.00;;;25.20;44.90;;;;;;5093683;28;20214;-47
2024/01/02 13:01:24;;;;;;;0.00;0.00;;;25.20;44.90;;;;;;5094238;28;20198;-48
2024/01/02 13:03:55;;;;;;;0.00;0.00;;;25.20;44.90;;;;;;5094428;28;20198;-47
2024/01/02 13:06:26;;;;;;;0.00;0.00;;;25.10;44.90;;;;;;5094154;28;20205;-46
2024/01/02 13:08:58;;;;;;;0.00;0.00;;;25.10;44.80;;;;;;5092499;28;20206;-46
2024/01/02 13:11:31;;;;;;;0.00;0.00;;;25.10;44.90;;;;;;5092897;28;20230;-46
2024/01/02 13:14:02;;;;;;;0.00;0.00;;;25.10;44.90;;;;;;5093026;28;20650;-48
2024/01/02 13:16:33;;;;;;;0.00;0.00;;;25.10;44.90;;;;;;5093274;28;20194;-48
2024/01/02 13:19:04;;;;;;;0.00;0.00;;;25.10;45.00;;;;;;5093859;28;20221;-50
2024/01/02 13:21:38;;;;;;;0.00;0.00;;;25.10;45.00;;;;;;5093730;28;20200;-48